sensor_id;sensor_type;location;lat;lon;timestamp;P1;durP1;ratioP1;P2;durP2;ratioP2
13386;SDS011;6763;48.524;9.044;2022-08-20T00:02:04;1.35;;;1.25;;
13386;SDS011;6763;48.524;9.044;2022-08-20T00:04:29;3.90;;;1.40;;
13386;SDS011;6763;48.524;9.044;2022-08-20T00:06:54;1.50;;;1.40;;
13386;SDS011;6763;48.524;9.044;2022-08-20T00:09:20;1.50;;;1.35;;
13386;SDS011;6763;48.524;9.044;2022-08-20T00:11:45;1.27;;;1.13;;
13386;SDS011;6763;48.524;9.044;2022-08-20T00:14:10;1.35;;;1.25;;
13386;SDS011;6763;48.524;9.044;2022-08-20T00:16:36;1.40;;;1.30;;
13386;SDS011;6763;48.524;9.044;2022-08-20T00:19:03;1.30;;;1.20;;
13386;SDS011;6763;48.524;9.044;2022-08-20T00:21:31;1.98;;;1.30;;
13386;SDS011;6763;48.524;9.044;2022-08-20T00:23:56;1.75;;;1.40;;
13386;SDS011;6763;48.524;9.044;2022-08-20T00:26:22;1.27;;;1.17;;
13386;SDS011;6763;48.524;9.044;2022-08-20T00:28:49;1.73;;;1.63;;
13386;SDS011;6763;48.524;9.044;2022-08-20T00:31:16;1.65;;;1.55;;
13386;SDS011;6763;48.524;9.044;2022-08-20T00:33:43;2.20;;;1.60;;
13386;SDS011;6763;48.524;9.044;2022-08-20T00:36:09;5.60;;;1.58;;
13386;SDS011;6763;48.524;9.044;2022-08-20T00:38:40;1.40;;;1.30;;
13386;SDS011;6763;48.524;9.044;2022-08-20T00:41:07;1.88;;;1.38;;
13386;SDS011;6763;48.524;9.044;2022-08-20T00:46:03;1.40;;;1.30;;
13386;SDS011;6763;48.524;9.044;2022-08-20T00:48:34;1.40;;;1.30;;
13386;SDS011;6763;48.524;9.044;2022-08-20T00:51:06;1.33;;;1.23;;
13386;SDS011;6763;48.524;9.044;2022-08-20T00:53:36;2.30;;;1.17;;
13386;SDS011;6763;48.524;9.044;2022-08-20T00:56:03;1.77;;;1.42;;
13386;SDS011;6763;48.524;9.044;2022-08-20T00:58:31;3.72;;;1.40;;
13386;SDS011;6763;48.524;9.044;2022-08-20T01:00:57;1.90;;;1.50;;
13386;SDS011;6763;48.524;9.044;2022-08-20T01:03:23;3.70;;;1.45;;
13386;SDS011;6763;48.524;9.044;2022-08-20T01:05:50;1.40;;;1.30;;
13386;SDS011;6763;48.524;9.044;2022-08-20T01:08:17;1.73;;;1.58;;
13386;SDS011;6763;48.524;9.044;2022-08-20T01:10:45;1.48;;;1.38;;
13386;SDS011;6763;48.524;9.044;2022-08-20T01:13:14;1.60;;;1.50;;
13386;SDS011;6763;48.524;9.044;2022-08-20T01:15:45;1.63;;;1.52;;
13386;SDS011;6763;48.524;9.044;2022-08-20T01:18:13;1.50;;;1.40;;
13386;SDS011;6763;48.524;9.044;2022-08-20T01:20:59;1.65;;;1.52;;
13386;SDS011;6763;48.524;9.044;2022-08-20T01:28:34;1.55;;;1.45;;
13386;SDS011;6763;48.524;9.044;2022-08-20T01:31:06;1.63;;;1.52;;
13386;SDS011;6763;48.524;9.044;2022-08-20T01:33:33;1.60;;;1.48;;
13386;SDS011;6763;48.524;9.044;2022-08-20T01:35:58;1.60;;;1.50;;
13386;SDS011;6763;48.524;9.044;2022-08-20T01:38:25;3.83;;;1.60;;
13386;SDS011;6763;48.524;9.044;2022-08-20T01:44:03;1.75;;;1.65;;
13386;SDS011;6763;48.524;9.044;2022-08-20T01:46:34;1.85;;;1.60;;
13386;SDS011;6763;48.524;9.044;2022-08-20T01:49:09;4.00;;;1.75;;
13386;SDS011;6763;48.524;9.044;2022-08-20T01:51:40;1.40;;;1.30;;
13386;SDS011;6763;48.524;9.044;2022-08-20T01:54:05;1.80;;;1.70;;
13386;SDS011;6763;48.524;9.044;2022-08-20T01:56:32;2.45;;;1.40;;
13386;SDS011;6763;48.524;9.044;2022-08-20T01:59:00;1.75;;;1.60;;
13386;SDS011;6763;48.524;9.044;2022-08-20T02:04:01;1.70;;;1.60;;
13386;SDS011;6763;48.524;9.044;2022-08-20T02:06:29;1.48;;;1.38;;
13386;SDS011;6763;48.524;9.044;2022-08-20T02:08:57;1.77;;;1.42;;
13386;SDS011;6763;48.524;9.044;2022-08-20T02:11:25;1.73;;;1.63;;
13386;SDS011;6763;48.524;9.044;2022-08-20T02:13:52;1.67;;;1.58;;
13386;SDS011;6763;48.524;9.044;2022-08-20T02:16:22;3.75;;;1.70;;
13386;SDS011;6763;48.524;9.044;2022-08-20T02:18:53;1.88;;;1.60;;
13386;SDS011;6763;48.524;9.044;2022-08-20T02:21:22;1.75;;;1.60;;
13386;SDS011;6763;48.524;9.044;2022-08-20T02:23:52;2.50;;;1.80;;
13386;SDS011;6763;48.524;9.044;2022-08-20T02:26:18;1.80;;;1.70;;
13386;SDS011;6763;48.524;9.044;2022-08-20T02:28:47;2.22;;;1.90;;
13386;SDS011;6763;48.524;9.044;2022-08-20T02:31:18;1.73;;;1.63;;
13386;SDS011;6763;48.524;9.044;2022-08-20T02:33:45;3.65;;;2.00;;
13386;SDS011;6763;48.524;9.044;2022-08-20T02:36:12;5.80;;;2.05;;
13386;SDS011;6763;48.524;9.044;2022-08-20T02:38:40;2.20;;;2.00;;
13386;SDS011;6763;48.524;9.044;2022-08-20T02:41:06;2.28;;;1.88;;
13386;SDS011;6763;48.524;9.044;2022-08-20T02:43:32;2.40;;;2.20;;
13386;SDS011;6763;48.524;9.044;2022-08-20T02:45:59;4.38;;;2.53;;
13386;SDS011;6763;48.524;9.044;2022-08-20T02:48:25;2.38;;;2.20;;
13386;SDS011;6763;48.524;9.044;2022-08-20T02:50:55;2.10;;;1.98;;
13386;SDS011;6763;48.524;9.044;2022-08-20T02:53:24;2.38;;;2.17;;
13386;SDS011;6763;48.524;9.044;2022-08-20T02:55:50;2.28;;;2.05;;
13386;SDS011;6763;48.524;9.044;2022-08-20T02:58:17;2.60;;;2.40;;
13386;SDS011;6763;48.524;9.044;2022-08-20T03:00:43;2.35;;;2.15;;
13386;SDS011;6763;48.524;9.044;2022-08-20T03:03:09;2.95;;;1.92;;
13386;SDS011;6763;48.524;9.044;2022-08-20T03:05:36;2.38;;;2.17;;
13386;SDS011;6763;48.524;9.044;2022-08-20T03:08:04;2.25;;;2.08;;
13386;SDS011;6763;48.524;9.044;2022-08-20T03:10:32;2.55;;;2.35;;
13386;SDS011;6763;48.524;9.044;2022-08-20T03:12:59;2.35;;;2.15;;
13386;SDS011;6763;48.524;9.044;2022-08-20T03:15:27;3.00;;;2.30;;
13386;SDS011;6763;48.524;9.044;2022-08-20T03:17:53;2.60;;;2.10;;
13386;SDS011;6763;48.524;9.044;2022-08-20T03:20:19;2.10;;;1.90;;
13386;SDS011;6763;48.524;9.044;2022-08-20T03:22:45;2.63;;;2.20;;
13386;SDS011;6763;48.524;9.044;2022-08-20T03:25:13;2.65;;;2.10;;
13386;SDS011;6763;48.524;9.044;2022-08-20T03:27:38;2.45;;;2.25;;
13386;SDS011;6763;48.524;9.044;2022-08-20T03:30:04;3.28;;;1.95;;
13386;SDS011;6763;48.524;9.044;2022-08-20T03:32:31;2.25;;;2.05;;
13386;SDS011;6763;48.524;9.044;2022-08-20T03:34:57;1.90;;;1.80;;
13386;SDS011;6763;48.524;9.044;2022-08-20T03:37:22;2.50;;;2.20;;
13386;SDS011;6763;48.524;9.044;2022-08-20T03:39:48;2.40;;;2.20;;
13386;SDS011;6763;48.524;9.044;2022-08-20T03:42:13;2.05;;;1.85;;
13386;SDS011;6763;48.524;9.044;2022-08-20T03:44:39;2.40;;;2.20;;
13386;SDS011;6763;48.524;9.044;2022-08-20T03:47:04;2.75;;;2.22;;
13386;SDS011;6763;48.524;9.044;2022-08-20T03:49:33;2.65;;;2.17;;
13386;SDS011;6763;48.524;9.044;2022-08-20T03:52:00;8.38;;;2.50;;
13386;SDS011;6763;48.524;9.044;2022-08-20T03:54:27;2.83;;;2.60;;
13386;SDS011;6763;48.524;9.044;2022-08-20T03:56:53;2.67;;;2.10;;
13386;SDS011;6763;48.524;9.044;2022-08-20T03:59:18;2.58;;;2.38;;
13386;SDS011;6763;48.524;9.044;2022-08-20T04:01:43;3.00;;;2.70;;
13386;SDS011;6763;48.524;9.044;2022-08-20T04:04:09;3.00;;;2.70;;
13386;SDS011;6763;48.524;9.044;2022-08-20T04:06:34;2.92;;;2.63;;
13386;SDS011;6763;48.524;9.044;2022-08-20T04:08:59;2.80;;;2.60;;
13386;SDS011;6763;48.524;9.044;2022-08-20T04:11:25;3.17;;;2.83;;
13386;SDS011;6763;48.524;9.044;2022-08-20T04:13:50;5.32;;;3.60;;
13386;SDS011;6763;48.524;9.044;2022-08-20T04:16:16;4.70;;;3.33;;
13386;SDS011;6763;48.524;9.044;2022-08-20T04:18:41;2.78;;;2.58;;
13386;SDS011;6763;48.524;9.044;2022-08-20T04:21:07;3.60;;;3.00;;
13386;SDS011;6763;48.524;9.044;2022-08-20T04:23:32;2.75;;;2.35;;
13386;SDS011;6763;48.524;9.044;2022-08-20T04:25:58;10.43;;;2.50;;
13386;SDS011;6763;48.524;9.044;2022-08-20T04:28:24;2.10;;;1.90;;
13386;SDS011;6763;48.524;9.044;2022-08-20T04:30:53;2.08;;;1.88;;
13386;SDS011;6763;48.524;9.044;2022-08-20T04:33:20;1.73;;;1.63;;
13386;SDS011;6763;48.524;9.044;2022-08-20T04:35:46;2.13;;;1.90;;
13386;SDS011;6763;48.524;9.044;2022-08-20T04:38:15;2.20;;;1.95;;
13386;SDS011;6763;48.524;9.044;2022-08-20T04:40:42;1.60;;;1.48;;
13386;SDS011;6763;48.524;9.044;2022-08-20T04:45:52;1.70;;;1.60;;
13386;SDS011;6763;48.524;9.044;2022-08-20T04:48:19;1.52;;;1.40;;
13386;SDS011;6763;48.524;9.044;2022-08-20T04:50:47;2.17;;;1.88;;
13386;SDS011;6763;48.524;9.044;2022-08-20T04:53:13;1.90;;;1.73;;
13386;SDS011;6763;48.524;9.044;2022-08-20T04:55:43;2.05;;;1.88;;
13386;SDS011;6763;48.524;9.044;2022-08-20T04:58:17;2.45;;;1.98;;
13386;SDS011;6763;48.524;9.044;2022-08-20T05:00:55;2.35;;;2.10;;
13386;SDS011;6763;48.524;9.044;2022-08-20T05:03:23;2.33;;;2.13;;
13386;SDS011;6763;48.524;9.044;2022-08-20T05:05:49;2.10;;;1.90;;
13386;SDS011;6763;48.524;9.044;2022-08-20T05:08:16;2.38;;;1.98;;
13386;SDS011;6763;48.524;9.044;2022-08-20T05:10:43;2.90;;;1.83;;
13386;SDS011;6763;48.524;9.044;2022-08-20T05:13:09;1.92;;;1.80;;
13386;SDS011;6763;48.524;9.044;2022-08-20T05:15:36;2.03;;;1.70;;
13386;SDS011;6763;48.524;9.044;2022-08-20T05:18:03;2.42;;;2.08;;
13386;SDS011;6763;48.524;9.044;2022-08-20T05:20:30;2.50;;;2.30;;
13386;SDS011;6763;48.524;9.044;2022-08-20T05:22:57;2.10;;;1.90;;
13386;SDS011;6763;48.524;9.044;2022-08-20T05:25:23;2.28;;;2.08;;
13386;SDS011;6763;48.524;9.044;2022-08-20T05:28:00;2.20;;;2.00;;
13386;SDS011;6763;48.524;9.044;2022-08-20T05:30:31;2.05;;;1.90;;
13386;SDS011;6763;48.524;9.044;2022-08-20T05:32:59;2.03;;;1.90;;
13386;SDS011;6763;48.524;9.044;2022-08-20T05:35:25;2.10;;;1.90;;
13386;SDS011;6763;48.524;9.044;2022-08-20T05:37:51;2.35;;;2.15;;
13386;SDS011;6763;48.524;9.044;2022-08-20T05:40:18;2.50;;;2.25;;
13386;SDS011;6763;48.524;9.044;2022-08-20T05:42:44;2.45;;;2.25;;
13386;SDS011;6763;48.524;9.044;2022-08-20T05:45:09;2.40;;;2.20;;
13386;SDS011;6763;48.524;9.044;2022-08-20T05:47:37;2.20;;;2.00;;
13386;SDS011;6763;48.524;9.044;2022-08-20T05:50:06;2.20;;;2.00;;
13386;SDS011;6763;48.524;9.044;2022-08-20T05:52:33;2.03;;;1.83;;
13386;SDS011;6763;48.524;9.044;2022-08-20T05:54:59;1.85;;;1.75;;
13386;SDS011;6763;48.524;9.044;2022-08-20T05:57:24;3.50;;;1.98;;
13386;SDS011;6763;48.524;9.044;2022-08-20T05:59:49;3.28;;;2.15;;
13386;SDS011;6763;48.524;9.044;2022-08-20T06:02:15;2.30;;;1.98;;
13386;SDS011;6763;48.524;9.044;2022-08-20T06:04:59;2.20;;;2.00;;
13386;SDS011;6763;48.524;9.044;2022-08-20T06:07:25;2.40;;;2.17;;
13386;SDS011;6763;48.524;9.044;2022-08-20T06:09:50;2.70;;;1.90;;
13386;SDS011;6763;48.524;9.044;2022-08-20T06:12:16;2.15;;;1.85;;
13386;SDS011;6763;48.524;9.044;2022-08-20T06:14:42;2.20;;;2.00;;
13386;SDS011;6763;48.524;9.044;2022-08-20T06:17:09;1.92;;;1.75;;
13386;SDS011;6763;48.524;9.044;2022-08-20T06:19:40;2.03;;;1.85;;
13386;SDS011;6763;48.524;9.044;2022-08-20T06:22:06;2.30;;;2.10;;
13386;SDS011;6763;48.524;9.044;2022-08-20T06:24:32;2.33;;;2.13;;
13386;SDS011;6763;48.524;9.044;2022-08-20T06:26:58;2.05;;;1.85;;
13386;SDS011;6763;48.524;9.044;2022-08-20T06:29:26;2.42;;;2.10;;
13386;SDS011;6763;48.524;9.044;2022-08-20T06:31:52;2.42;;;1.90;;
13386;SDS011;6763;48.524;9.044;2022-08-20T06:34:18;2.53;;;2.33;;
13386;SDS011;6763;48.524;9.044;2022-08-20T06:36:44;2.38;;;2.17;;
13386;SDS011;6763;48.524;9.044;2022-08-20T06:39:11;2.55;;;2.00;;
13386;SDS011;6763;48.524;9.044;2022-08-20T06:41:37;2.22;;;1.88;;
13386;SDS011;6763;48.524;9.044;2022-08-20T06:44:03;2.28;;;2.08;;
13386;SDS011;6763;48.524;9.044;2022-08-20T06:46:29;2.90;;;2.45;;
13386;SDS011;6763;48.524;9.044;2022-08-20T06:48:56;1.90;;;1.80;;
13386;SDS011;6763;48.524;9.044;2022-08-20T06:51:21;2.65;;;2.00;;
13386;SDS011;6763;48.524;9.044;2022-08-20T06:53:47;2.25;;;1.88;;
13386;SDS011;6763;48.524;9.044;2022-08-20T06:56:12;2.35;;;2.13;;
13386;SDS011;6763;48.524;9.044;2022-08-20T06:58:37;2.63;;;2.20;;
13386;SDS011;6763;48.524;9.044;2022-08-20T07:01:03;2.38;;;2.17;;
13386;SDS011;6763;48.524;9.044;2022-08-20T07:03:33;2.50;;;2.08;;
13386;SDS011;6763;48.524;9.044;2022-08-20T07:05:58;2.40;;;2.20;;
13386;SDS011;6763;48.524;9.044;2022-08-20T07:08:23;2.20;;;2.00;;
13386;SDS011;6763;48.524;9.044;2022-08-20T07:10:49;2.35;;;2.15;;
13386;SDS011;6763;48.524;9.044;2022-08-20T07:13:15;2.10;;;1.90;;
13386;SDS011;6763;48.524;9.044;2022-08-20T07:15:40;1.98;;;1.83;;
13386;SDS011;6763;48.524;9.044;2022-08-20T07:18:07;2.22;;;2.00;;
13386;SDS011;6763;48.524;9.044;2022-08-20T07:20:33;2.10;;;1.88;;
13386;SDS011;6763;48.524;9.044;2022-08-20T07:23:00;1.98;;;1.77;;
13386;SDS011;6763;48.524;9.044;2022-08-20T07:25:26;2.08;;;1.88;;
13386;SDS011;6763;48.524;9.044;2022-08-20T07:27:52;2.38;;;2.17;;
13386;SDS011;6763;48.524;9.044;2022-08-20T07:30:24;2.58;;;2.35;;
13386;SDS011;6763;48.524;9.044;2022-08-20T07:33:09;2.30;;;2.10;;
13386;SDS011;6763;48.524;9.044;2022-08-20T07:35:38;2.42;;;2.22;;
13386;SDS011;6763;48.524;9.044;2022-08-20T07:38:03;1.85;;;1.75;;
13386;SDS011;6763;48.524;9.044;2022-08-20T07:40:30;2.63;;;2.05;;
13386;SDS011;6763;48.524;9.044;2022-08-20T07:42:58;1.73;;;1.63;;
13386;SDS011;6763;48.524;9.044;2022-08-20T07:45:27;2.83;;;2.20;;
13386;SDS011;6763;48.524;9.044;2022-08-20T07:47:54;2.55;;;2.30;;
13386;SDS011;6763;48.524;9.044;2022-08-20T07:50:30;2.58;;;2.10;;
13386;SDS011;6763;48.524;9.044;2022-08-20T07:52:56;2.20;;;1.98;;
13386;SDS011;6763;48.524;9.044;2022-08-20T07:55:24;2.83;;;2.33;;
13386;SDS011;6763;48.524;9.044;2022-08-20T07:57:49;1.90;;;1.75;;
13386;SDS011;6763;48.524;9.044;2022-08-20T08:00:16;2.50;;;2.10;;
13386;SDS011;6763;48.524;9.044;2022-08-20T08:02:43;2.30;;;2.08;;
13386;SDS011;6763;48.524;9.044;2022-08-20T08:05:09;1.85;;;1.70;;
13386;SDS011;6763;48.524;9.044;2022-08-20T08:07:34;2.15;;;1.95;;
13386;SDS011;6763;48.524;9.044;2022-08-20T08:10:02;2.65;;;2.22;;
13386;SDS011;6763;48.524;9.044;2022-08-20T08:12:34;1.98;;;1.70;;
13386;SDS011;6763;48.524;9.044;2022-08-20T08:15:04;2.28;;;1.92;;
13386;SDS011;6763;48.524;9.044;2022-08-20T08:17:34;1.83;;;1.65;;
13386;SDS011;6763;48.524;9.044;2022-08-20T08:20:00;2.10;;;1.90;;
13386;SDS011;6763;48.524;9.044;2022-08-20T08:22:27;1.80;;;1.70;;
13386;SDS011;6763;48.524;9.044;2022-08-20T08:24:55;2.10;;;1.83;;
13386;SDS011;6763;48.524;9.044;2022-08-20T08:27:23;1.55;;;1.45;;
13386;SDS011;6763;48.524;9.044;2022-08-20T08:29:49;1.80;;;1.70;;
13386;SDS011;6763;48.524;9.044;2022-08-20T08:32:14;2.22;;;1.80;;
13386;SDS011;6763;48.524;9.044;2022-08-20T08:34:39;1.88;;;1.67;;
13386;SDS011;6763;48.524;9.044;2022-08-20T08:37:05;1.90;;;1.80;;
13386;SDS011;6763;48.524;9.044;2022-08-20T08:39:31;1.73;;;1.63;;
13386;SDS011;6763;48.524;9.044;2022-08-20T08:41:57;1.52;;;1.42;;
13386;SDS011;6763;48.524;9.044;2022-08-20T08:44:29;1.52;;;1.30;;
13386;SDS011;6763;48.524;9.044;2022-08-20T08:47:01;1.70;;;1.60;;
13386;SDS011;6763;48.524;9.044;2022-08-20T08:49:41;1.70;;;1.60;;
13386;SDS011;6763;48.524;9.044;2022-08-20T08:52:26;1.95;;;1.75;;
13386;SDS011;6763;48.524;9.044;2022-08-20T08:54:56;1.92;;;1.60;;
13386;SDS011;6763;48.524;9.044;2022-08-20T08:57:24;2.33;;;1.85;;
13386;SDS011;6763;48.524;9.044;2022-08-20T09:00:09;1.98;;;1.67;;
13386;SDS011;6763;48.524;9.044;2022-08-20T09:02:39;2.20;;;2.00;;
13386;SDS011;6763;48.524;9.044;2022-08-20T09:05:17;1.75;;;1.65;;
13386;SDS011;6763;48.524;9.044;2022-08-20T09:07:48;2.08;;;1.88;;
13386;SDS011;6763;48.524;9.044;2022-08-20T09:10:15;2.65;;;1.77;;
13386;SDS011;6763;48.524;9.044;2022-08-20T09:12:41;2.05;;;1.85;;
13386;SDS011;6763;48.524;9.044;2022-08-20T09:15:08;1.70;;;1.60;;
13386;SDS011;6763;48.524;9.044;2022-08-20T09:17:34;1.70;;;1.60;;
13386;SDS011;6763;48.524;9.044;2022-08-20T09:20:00;1.80;;;1.70;;
13386;SDS011;6763;48.524;9.044;2022-08-20T09:22:25;1.58;;;1.30;;
13386;SDS011;6763;48.524;9.044;2022-08-20T09:24:50;1.52;;;1.42;;
13386;SDS011;6763;48.524;9.044;2022-08-20T09:27:16;1.60;;;1.50;;
13386;SDS011;6763;48.524;9.044;2022-08-20T09:29:42;1.70;;;1.55;;
13386;SDS011;6763;48.524;9.044;2022-08-20T09:32:14;1.48;;;1.25;;
13386;SDS011;6763;48.524;9.044;2022-08-20T09:34:43;1.60;;;1.50;;
13386;SDS011;6763;48.524;9.044;2022-08-20T09:37:12;1.60;;;1.50;;
13386;SDS011;6763;48.524;9.044;2022-08-20T09:39:38;1.60;;;1.48;;
13386;SDS011;6763;48.524;9.044;2022-08-20T09:42:15;1.40;;;1.30;;
13386;SDS011;6763;48.524;9.044;2022-08-20T09:44:43;2.05;;;1.55;;
13386;SDS011;6763;48.524;9.044;2022-08-20T09:47:08;1.40;;;1.30;;
13386;SDS011;6763;48.524;9.044;2022-08-20T09:49:34;1.45;;;1.35;;
13386;SDS011;6763;48.524;9.044;2022-08-20T09:52:04;1.30;;;1.20;;
13386;SDS011;6763;48.524;9.044;2022-08-20T09:54:31;2.60;;;1.48;;
13386;SDS011;6763;48.524;9.044;2022-08-20T09:56:59;1.42;;;1.30;;
13386;SDS011;6763;48.524;9.044;2022-08-20T09:59:28;1.20;;;1.10;;
13386;SDS011;6763;48.524;9.044;2022-08-20T10:01:55;0.80;;;0.80;;
13386;SDS011;6763;48.524;9.044;2022-08-20T10:04:20;0.85;;;0.85;;
13386;SDS011;6763;48.524;9.044;2022-08-20T10:06:46;1.10;;;1.00;;
13386;SDS011;6763;48.524;9.044;2022-08-20T10:09:11;1.45;;;0.80;;
13386;SDS011;6763;48.524;9.044;2022-08-20T10:11:37;0.85;;;0.85;;
13386;SDS011;6763;48.524;9.044;2022-08-20T10:14:03;1.17;;;1.00;;
13386;SDS011;6763;48.524;9.044;2022-08-20T10:16:29;0.95;;;0.93;;
13386;SDS011;6763;48.524;9.044;2022-08-20T10:18:55;0.90;;;0.90;;
13386;SDS011;6763;48.524;9.044;2022-08-20T10:21:20;0.85;;;0.85;;
13386;SDS011;6763;48.524;9.044;2022-08-20T10:23:46;1.15;;;0.98;;
13386;SDS011;6763;48.524;9.044;2022-08-20T10:26:11;1.33;;;1.23;;
13386;SDS011;6763;48.524;9.044;2022-08-20T10:28:37;1.33;;;1.23;;
13386;SDS011;6763;48.524;9.044;2022-08-20T10:31:07;1.17;;;1.08;;
13386;SDS011;6763;48.524;9.044;2022-08-20T10:33:34;1.20;;;1.10;;
13386;SDS011;6763;48.524;9.044;2022-08-20T10:36:08;1.63;;;1.50;;
13386;SDS011;6763;48.524;9.044;2022-08-20T10:38:38;1.70;;;1.60;;
13386;SDS011;6763;48.524;9.044;2022-08-20T10:41:03;2.08;;;1.48;;
13386;SDS011;6763;48.524;9.044;2022-08-20T10:43:29;1.42;;;1.33;;
13386;SDS011;6763;48.524;9.044;2022-08-20T10:45:55;1.75;;;1.60;;
13386;SDS011;6763;48.524;9.044;2022-08-20T10:48:20;1.42;;;1.33;;
13386;SDS011;6763;48.524;9.044;2022-08-20T10:50:47;1.23;;;0.95;;
13386;SDS011;6763;48.524;9.044;2022-08-20T10:53:13;0.80;;;0.80;;
13386;SDS011;6763;48.524;9.044;2022-08-20T10:55:39;0.73;;;0.73;;
13386;SDS011;6763;48.524;9.044;2022-08-20T10:58:05;0.95;;;0.80;;
13386;SDS011;6763;48.524;9.044;2022-08-20T11:00:31;0.60;;;0.60;;
13386;SDS011;6763;48.524;9.044;2022-08-20T11:02:57;1.10;;;1.00;;
13386;SDS011;6763;48.524;9.044;2022-08-20T11:05:22;0.63;;;0.60;;
13386;SDS011;6763;48.524;9.044;2022-08-20T11:07:47;1.63;;;0.90;;
13386;SDS011;6763;48.524;9.044;2022-08-20T11:10:13;0.80;;;0.80;;
13386;SDS011;6763;48.524;9.044;2022-08-20T11:12:38;0.75;;;0.73;;
13386;SDS011;6763;48.524;9.044;2022-08-20T11:15:04;0.70;;;0.60;;
13386;SDS011;6763;48.524;9.044;2022-08-20T11:17:31;0.73;;;0.73;;
13386;SDS011;6763;48.524;9.044;2022-08-20T11:19:58;0.77;;;0.50;;
13386;SDS011;6763;48.524;9.044;2022-08-20T11:22:24;1.13;;;0.75;;
13386;SDS011;6763;48.524;9.044;2022-08-20T11:24:50;1.33;;;0.90;;
13386;SDS011;6763;48.524;9.044;2022-08-20T11:27:19;1.02;;;0.85;;
13386;SDS011;6763;48.524;9.044;2022-08-20T11:29:48;1.23;;;0.90;;
13386;SDS011;6763;48.524;9.044;2022-08-20T11:32:13;1.25;;;0.98;;
13386;SDS011;6763;48.524;9.044;2022-08-20T11:34:39;0.95;;;0.80;;
13386;SDS011;6763;48.524;9.044;2022-08-20T11:37:04;2.30;;;0.95;;
13386;SDS011;6763;48.524;9.044;2022-08-20T11:39:30;0.93;;;0.80;;
13386;SDS011;6763;48.524;9.044;2022-08-20T11:41:55;0.80;;;0.80;;
13386;SDS011;6763;48.524;9.044;2022-08-20T11:44:20;2.03;;;0.80;;
13386;SDS011;6763;48.524;9.044;2022-08-20T11:46:46;1.10;;;0.90;;
13386;SDS011;6763;48.524;9.044;2022-08-20T11:49:11;0.82;;;0.73;;
13386;SDS011;6763;48.524;9.044;2022-08-20T11:51:36;1.00;;;0.90;;
13386;SDS011;6763;48.524;9.044;2022-08-20T11:54:02;0.80;;;0.80;;
13386;SDS011;6763;48.524;9.044;2022-08-20T11:56:29;0.60;;;0.60;;
13386;SDS011;6763;48.524;9.044;2022-08-20T11:58:55;0.70;;;0.70;;
13386;SDS011;6763;48.524;9.044;2022-08-20T12:01:20;0.90;;;0.77;;
13386;SDS011;6763;48.524;9.044;2022-08-20T12:03:45;1.10;;;1.10;;
13386;SDS011;6763;48.524;9.044;2022-08-20T12:06:11;0.85;;;0.80;;
13386;SDS011;6763;48.524;9.044;2022-08-20T12:08:36;1.27;;;0.80;;
13386;SDS011;6763;48.524;9.044;2022-08-20T12:11:02;0.70;;;0.70;;
13386;SDS011;6763;48.524;9.044;2022-08-20T12:13:28;1.95;;;1.77;;
13386;SDS011;6763;48.524;9.044;2022-08-20T12:15:56;1.00;;;0.80;;
13386;SDS011;6763;48.524;9.044;2022-08-20T12:18:22;0.73;;;0.70;;
13386;SDS011;6763;48.524;9.044;2022-08-20T12:20:48;0.70;;;0.70;;
13386;SDS011;6763;48.524;9.044;2022-08-20T12:23:13;0.80;;;0.70;;
13386;SDS011;6763;48.524;9.044;2022-08-20T12:25:39;1.05;;;0.90;;
13386;SDS011;6763;48.524;9.044;2022-08-20T12:28:04;0.98;;;0.98;;
13386;SDS011;6763;48.524;9.044;2022-08-20T12:30:30;2.80;;;1.00;;
13386;SDS011;6763;48.524;9.044;2022-08-20T12:32:57;1.02;;;0.88;;
13386;SDS011;6763;48.524;9.044;2022-08-20T12:35:23;0.90;;;0.70;;
13386;SDS011;6763;48.524;9.044;2022-08-20T12:37:49;0.77;;;0.77;;
13386;SDS011;6763;48.524;9.044;2022-08-20T12:40:18;2.50;;;0.75;;
13386;SDS011;6763;48.524;9.044;2022-08-20T12:42:49;0.63;;;0.60;;
13386;SDS011;6763;48.524;9.044;2022-08-20T12:45:15;0.80;;;0.80;;
13386;SDS011;6763;48.524;9.044;2022-08-20T12:47:42;0.55;;;0.55;;
13386;SDS011;6763;48.524;9.044;2022-08-20T12:50:14;0.90;;;0.73;;
13386;SDS011;6763;48.524;9.044;2022-08-20T12:52:45;0.80;;;0.70;;
13386;SDS011;6763;48.524;9.044;2022-08-20T12:55:12;0.50;;;0.50;;
13386;SDS011;6763;48.524;9.044;2022-08-20T12:57:40;0.40;;;0.40;;
13386;SDS011;6763;48.524;9.044;2022-08-20T13:00:12;0.50;;;0.50;;
13386;SDS011;6763;48.524;9.044;2022-08-20T13:02:40;0.47;;;0.47;;
13386;SDS011;6763;48.524;9.044;2022-08-20T13:05:06;0.70;;;0.60;;
13386;SDS011;6763;48.524;9.044;2022-08-20T13:07:33;0.50;;;0.50;;
13386;SDS011;6763;48.524;9.044;2022-08-20T13:09:59;0.32;;;0.32;;
13386;SDS011;6763;48.524;9.044;2022-08-20T13:12:25;0.52;;;0.52;;
13386;SDS011;6763;48.524;9.044;2022-08-20T13:14:51;0.50;;;0.50;;
13386;SDS011;6763;48.524;9.044;2022-08-20T13:17:16;0.50;;;0.50;;
13386;SDS011;6763;48.524;9.044;2022-08-20T13:19:43;0.57;;;0.57;;
13386;SDS011;6763;48.524;9.044;2022-08-20T13:22:10;0.50;;;0.50;;
13386;SDS011;6763;48.524;9.044;2022-08-20T13:24:36;1.48;;;0.63;;
13386;SDS011;6763;48.524;9.044;2022-08-20T13:27:23;0.45;;;0.45;;
13386;SDS011;6763;48.524;9.044;2022-08-20T13:29:50;0.52;;;0.52;;
13386;SDS011;6763;48.524;9.044;2022-08-20T13:32:18;0.50;;;0.50;;
13386;SDS011;6763;48.524;9.044;2022-08-20T13:34:45;0.57;;;0.57;;
13386;SDS011;6763;48.524;9.044;2022-08-20T13:37:11;0.40;;;0.40;;
13386;SDS011;6763;48.524;9.044;2022-08-20T13:39:37;0.52;;;0.52;;
13386;SDS011;6763;48.524;9.044;2022-08-20T13:42:04;0.40;;;0.40;;
13386;SDS011;6763;48.524;9.044;2022-08-20T13:44:30;0.40;;;0.40;;
13386;SDS011;6763;48.524;9.044;2022-08-20T13:46:55;0.50;;;0.50;;
13386;SDS011;6763;48.524;9.044;2022-08-20T13:49:20;0.43;;;0.43;;
13386;SDS011;6763;48.524;9.044;2022-08-20T13:51:46;0.70;;;0.70;;
13386;SDS011;6763;48.524;9.044;2022-08-20T13:54:11;0.47;;;0.47;;
13386;SDS011;6763;48.524;9.044;2022-08-20T13:56:36;0.60;;;0.60;;
13386;SDS011;6763;48.524;9.044;2022-08-20T13:59:02;0.50;;;0.50;;
13386;SDS011;6763;48.524;9.044;2022-08-20T14:01:27;0.60;;;0.60;;
13386;SDS011;6763;48.524;9.044;2022-08-20T14:03:52;0.65;;;0.60;;
13386;SDS011;6763;48.524;9.044;2022-08-20T14:06:18;0.50;;;0.50;;
13386;SDS011;6763;48.524;9.044;2022-08-20T14:08:43;0.43;;;0.43;;
13386;SDS011;6763;48.524;9.044;2022-08-20T14:11:09;0.70;;;0.70;;
13386;SDS011;6763;48.524;9.044;2022-08-20T14:13:34;0.57;;;0.57;;
13386;SDS011;6763;48.524;9.044;2022-08-20T14:15:59;0.60;;;0.60;;
13386;SDS011;6763;48.524;9.044;2022-08-20T14:18:25;0.60;;;0.60;;
13386;SDS011;6763;48.524;9.044;2022-08-20T14:20:50;0.70;;;0.70;;
13386;SDS011;6763;48.524;9.044;2022-08-20T14:23:15;0.82;;;0.82;;
13386;SDS011;6763;48.524;9.044;2022-08-20T14:25:43;0.63;;;0.63;;
13386;SDS011;6763;48.524;9.044;2022-08-20T14:28:14;0.60;;;0.60;;
13386;SDS011;6763;48.524;9.044;2022-08-20T14:30:42;0.70;;;0.70;;
13386;SDS011;6763;48.524;9.044;2022-08-20T14:33:07;0.63;;;0.63;;
13386;SDS011;6763;48.524;9.044;2022-08-20T14:35:33;0.52;;;0.52;;
13386;SDS011;6763;48.524;9.044;2022-08-20T14:37:59;0.50;;;0.50;;
13386;SDS011;6763;48.524;9.044;2022-08-20T14:40:25;0.52;;;0.52;;
13386;SDS011;6763;48.524;9.044;2022-08-20T14:42:51;0.60;;;0.50;;
13386;SDS011;6763;48.524;9.044;2022-08-20T14:45:16;0.68;;;0.68;;
13386;SDS011;6763;48.524;9.044;2022-08-20T14:47:52;0.50;;;0.50;;
13386;SDS011;6763;48.524;9.044;2022-08-20T14:50:28;0.70;;;0.70;;
13386;SDS011;6763;48.524;9.044;2022-08-20T14:52:55;0.60;;;0.60;;
13386;SDS011;6763;48.524;9.044;2022-08-20T14:55:22;0.50;;;0.50;;
13386;SDS011;6763;48.524;9.044;2022-08-20T14:57:49;0.50;;;0.50;;
13386;SDS011;6763;48.524;9.044;2022-08-20T15:00:16;0.70;;;0.70;;
13386;SDS011;6763;48.524;9.044;2022-08-20T15:02:44;0.75;;;0.63;;
13386;SDS011;6763;48.524;9.044;2022-08-20T15:05:10;0.50;;;0.50;;
13386;SDS011;6763;48.524;9.044;2022-08-20T15:07:38;0.50;;;0.50;;
13386;SDS011;6763;48.524;9.044;2022-08-20T15:10:07;0.60;;;0.40;;
13386;SDS011;6763;48.524;9.044;2022-08-20T15:12:34;0.60;;;0.60;;
13386;SDS011;6763;48.524;9.044;2022-08-20T15:15:00;0.43;;;0.43;;
13386;SDS011;6763;48.524;9.044;2022-08-20T15:17:28;0.75;;;0.50;;